createdAt,value
2022-08-28T00:02:21.235Z,100071.78
2022-08-28T00:05:11.428Z,100066.88
2022-08-28T00:08:02.162Z,100058.47
2022-08-28T00:10:52.065Z,100064.22
2022-08-28T00:13:40.775Z,100061.50
2022-08-28T00:16:30.440Z,100048.41
2022-08-28T00:19:20.660Z,100059.31
2022-08-28T00:22:09.473Z,100065.28
2022-08-28T00:24:58.044Z,100054.44
2022-08-28T00:27:52.706Z,100047.31
2022-08-28T00:30:44.217Z,100061.22
2022-08-28T00:33:35.641Z,100065.00
2022-08-28T00:36:24.234Z,100057.09
2022-08-28T00:39:12.790Z,100064.41
2022-08-28T00:42:01.569Z,100057.81
2022-08-28T00:44:51.852Z,100064.31
2022-08-28T00:47:40.979Z,100061.28
2022-08-28T00:50:52.282Z,100056.16
2022-08-28T00:53:40.267Z,100037.25
2022-08-28T00:56:30.374Z,100065.94
2022-08-28T00:59:21.881Z,100062.97
2022-08-28T01:02:11.850Z,100060.25
2022-08-28T01:05:00.428Z,100066.19
2022-08-28T01:07:49.253Z,100064.31
2022-08-28T01:10:38.387Z,100063.66
2022-08-28T01:13:27.142Z,100067.28
2022-08-28T01:16:16.657Z,100068.34
2022-08-28T01:19:09.643Z,100065.34
2022-08-28T01:22:04.066Z,100054.09
2022-08-28T01:24:55.317Z,100069.41
2022-08-28T01:27:44.015Z,100062.63
2022-08-28T01:30:32.864Z,100061.22
2022-08-28T01:33:24.295Z,100065.84
2022-08-28T01:36:17.743Z,100073.47
2022-08-28T01:39:10.091Z,100067.78
2022-08-28T01:42:00.678Z,100065.06
2022-08-28T01:44:50.098Z,100062.03
2022-08-28T01:47:38.725Z,100070.44
2022-08-28T01:50:27.680Z,100075.31
2022-08-28T01:53:18.430Z,100069.59
2022-08-28T01:56:12.072Z,100069.28
2022-08-28T01:59:04.677Z,100064.94
2022-08-28T02:01:53.917Z,100070.88
2022-08-28T02:04:46.170Z,100066.47
2022-08-28T02:07:36.661Z,100068.59
2022-08-28T02:10:26.091Z,100071.56
2022-08-28T02:13:15.935Z,100069.03
2022-08-28T02:16:09.860Z,100073.75
2022-08-28T02:18:58.670Z,100075.13
2022-08-28T02:21:47.484Z,100078.94
2022-08-28T02:24:36.154Z,100076.22
2022-08-28T02:27:25.766Z,100070.50
2022-08-28T02:30:16.111Z,100079.16
2022-08-28T02:33:06.060Z,100070.63
2022-08-28T02:35:54.610Z,100069.81
2022-08-28T02:38:44.005Z,100076.00
2022-08-28T02:41:32.921Z,100076.75
2022-08-28T02:44:21.608Z,100080.81
2022-08-28T02:47:10.462Z,100081.59
2022-08-28T02:50:00.590Z,100073.97
2022-08-28T02:52:49.338Z,100069.69
2022-08-28T02:55:37.912Z,100075.94
2022-08-28T02:58:27.648Z,100071.84
2022-08-28T03:01:16.511Z,100068.03
2022-08-28T03:04:05.458Z,100065.56
2022-08-28T03:06:55.429Z,100062.84
2022-08-28T03:09:44.829Z,100061.75
2022-08-28T03:12:33.408Z,100056.78
2022-08-28T03:15:22.244Z,100075.19
2022-08-28T03:18:11.128Z,100067.56
2022-08-28T03:21:00.186Z,100073.25
2022-08-28T03:23:50.233Z,100070.78
2022-08-28T03:26:38.818Z,100064.50
2022-08-28T03:29:27.424Z,100025.47
2022-08-28T03:32:15.971Z,100066.19
2022-08-28T03:35:05.499Z,100064.16
2022-08-28T03:37:54.022Z,100074.50
2022-08-28T03:40:46.214Z,100078.03
2022-08-28T03:43:34.812Z,100078.88
2022-08-28T03:46:24.703Z,100082.13
2022-08-28T03:49:13.467Z,100085.09
2022-08-28T03:52:02.015Z,100083.50
2022-08-28T03:54:50.660Z,100090.34
2022-08-28T03:57:40.805Z,100088.19
2022-08-28T04:00:29.416Z,100095.53
2022-08-28T04:03:18.202Z,100081.97
2022-08-28T04:06:07.265Z,100082.25
2022-08-28T04:09:00.128Z,100075.19
2022-08-28T04:11:48.943Z,100084.22
2022-08-28T04:14:38.978Z,100065.56
2022-08-28T04:17:27.601Z,100087.44
2022-08-28T04:20:16.121Z,100092.31
2022-08-28T04:23:05.778Z,100068.63
2022-08-28T04:25:54.612Z,100096.47
2022-08-28T04:28:43.848Z,100087.50
2022-08-28T04:31:34.479Z,100084.28
2022-08-28T04:34:23.099Z,100083.97
2022-08-28T04:37:12.261Z,100094.94
2022-08-28T04:40:01.410Z,100104.22
2022-08-28T04:42:52.140Z,100094.63
2022-08-28T04:45:41.635Z,100095.00
2022-08-28T04:48:32.402Z,100101.88
2022-08-28T04:51:21.542Z,100104.34
2022-08-28T04:54:10.757Z,100098.69
2022-08-28T04:56:59.917Z,100102.19
2022-08-28T04:59:48.463Z,100106.00
2022-08-28T05:02:37.253Z,100098.84
2022-08-28T05:05:27.289Z,100113.63
2022-08-28T05:08:17.962Z,100109.31
2022-08-28T05:11:33.067Z,100115.09
2022-08-28T05:14:22.741Z,100125.44
2022-08-28T05:17:13.370Z,100120.88
2022-08-28T05:20:02.402Z,100121.44
2022-08-28T05:22:52.370Z,100124.44
2022-08-28T05:25:43.603Z,100103.47
2022-08-28T05:28:32.141Z,100108.66
2022-08-28T05:31:22.153Z,100121.81
2022-08-28T05:34:11.819Z,100128.34
2022-08-28T05:37:00.389Z,100120.78
2022-08-28T05:39:50.276Z,100124.09
2022-08-28T05:42:39.214Z,100131.75
2022-08-28T05:45:27.793Z,100133.19
2022-08-28T05:48:16.654Z,100134.81
2022-08-28T05:51:06.655Z,100133.25
2022-08-28T05:53:57.464Z,100130.81
2022-08-28T05:56:47.637Z,100128.91
2022-08-28T05:59:36.161Z,100130.53
2022-08-28T06:02:24.746Z,100130.59
2022-08-28T06:05:14.757Z,100148.59
2022-08-28T06:08:03.476Z,100144.56
2022-08-28T06:10:52.021Z,100133.94
2022-08-28T06:13:42.309Z,100148.72
2022-08-28T06:16:35.533Z,100149.88
2022-08-28T06:19:25.715Z,100147.44
2022-08-28T06:22:14.833Z,100151.81
2022-08-28T06:25:07.454Z,100151.00
2022-08-28T06:27:56.502Z,100152.94
2022-08-28T06:31:17.851Z,100126.16
2022-08-28T06:33:55.248Z,100156.19
2022-08-28T06:36:44.203Z,100162.78
2022-08-28T06:39:32.751Z,100170.19
2022-08-28T06:42:21.447Z,100170.50
2022-08-28T06:45:10.956Z,100167.78
2022-08-28T06:48:00.784Z,100164.53
2022-08-28T06:50:52.377Z,100160.75
2022-08-28T06:53:42.114Z,100176.31
2022-08-28T06:56:31.446Z,100165.44
2022-08-28T06:59:20.068Z,100180.47
2022-08-28T07:02:09.257Z,100173.66
2022-08-28T07:04:59.275Z,100184.59
2022-08-28T07:07:47.796Z,100188.97
2022-08-28T07:10:36.336Z,100191.72
2022-08-28T07:13:25.003Z,100191.44
2022-08-28T07:16:15.090Z,100199.88
2022-08-28T07:19:05.481Z,100196.13
2022-08-28T07:21:55.432Z,100195.66
2022-08-28T07:24:44.016Z,100181.28
2022-08-28T07:27:32.907Z,100195.50
2022-08-28T07:30:21.879Z,100198.53
2022-08-28T07:33:10.434Z,100193.69
2022-08-28T07:35:59.337Z,100194.75
2022-08-28T07:38:50.215Z,100195.34
2022-08-28T07:41:42.725Z,100202.41
2022-08-28T07:44:49.770Z,100209.03
2022-08-28T07:47:38.742Z,100207.91
2022-08-28T07:50:27.439Z,100215.84
2022-08-28T07:53:15.967Z,100218.91
2022-08-28T07:56:06.813Z,100220.59
2022-08-28T07:58:56.211Z,100220.03
2022-08-28T08:01:47.934Z,100223.31
2022-08-28T08:04:36.538Z,100221.38
2022-08-28T08:07:25.078Z,100229.84
2022-08-28T08:10:14.845Z,100228.50
2022-08-28T08:13:09.914Z,100233.09
2022-08-28T08:16:07.250Z,100238.03
2022-08-28T08:18:56.499Z,100235.28
2022-08-28T08:21:46.367Z,100237.22
2022-08-28T08:24:35.349Z,100246.19
2022-08-28T08:27:24.335Z,100246.50
2022-08-28T08:30:14.804Z,100248.69
2022-08-28T08:33:03.323Z,100252.78
2022-08-28T08:35:52.110Z,100265.06
2022-08-28T08:38:40.697Z,100261.53
2022-08-28T08:41:32.752Z,100241.31
2022-08-28T08:44:28.011Z,100266.97
2022-08-28T08:47:32.533Z,100257.97
2022-08-28T08:50:23.267Z,100256.88
2022-08-28T08:53:20.989Z,100271.38
2022-08-28T08:56:13.653Z,100278.47
2022-08-28T08:59:04.570Z,100279.00
2022-08-28T09:02:01.926Z,100282.56
2022-08-28T09:04:55.981Z,100280.66
2022-08-28T09:07:53.081Z,100258.00
2022-08-28T09:10:45.079Z,100288.28
2022-08-28T09:13:41.316Z,100285.00
2022-08-28T09:16:32.815Z,100294.53
2022-08-28T09:19:22.724Z,100291.19
2022-08-28T09:22:12.939Z,100288.16
2022-08-28T09:25:01.535Z,100280.19
2022-08-28T09:27:52.750Z,100280.50
2022-08-28T09:30:42.949Z,100288.69
2022-08-28T09:33:37.794Z,100287.94
2022-08-28T09:36:31.935Z,100285.22
2022-08-28T09:39:23.671Z,100285.69
2022-08-28T09:42:36.271Z,100287.03
2022-08-28T09:45:25.959Z,100292.72
2022-08-28T09:48:22.436Z,100291.06
2022-08-28T09:51:13.545Z,100287.84
2022-08-28T09:54:05.846Z,100255.44
2022-08-28T09:56:56.088Z,100269.00
2022-08-28T09:59:44.639Z,100283.94
2022-08-28T10:02:42.116Z,100282.75
2022-08-28T10:05:38.658Z,100291.41
2022-08-28T10:08:35.840Z,100282.97
2022-08-28T10:11:31.579Z,100291.28
2022-08-28T10:14:38.333Z,100289.34
2022-08-28T10:17:31.474Z,100293.25
2022-08-28T10:20:26.590Z,100291.22
2022-08-28T10:23:19.148Z,100289.81
2022-08-28T10:26:21.288Z,100286.75
2022-08-28T10:29:22.577Z,100289.91
2022-08-28T10:32:25.786Z,100288.69
2022-08-28T10:35:17.265Z,100290.72
2022-08-28T10:38:10.828Z,100291.16
2022-08-28T10:41:04.109Z,100277.03
2022-08-28T10:43:54.545Z,100291.16
2022-08-28T10:46:45.699Z,100274.31
2022-08-28T10:49:39.335Z,100257.03
2022-08-28T10:52:32.668Z,100281.09
2022-08-28T10:55:25.075Z,100252.81
2022-08-28T10:58:23.858Z,100279.78
2022-08-28T11:01:15.002Z,100281.66
2022-08-28T11:04:07.602Z,100275.41
2022-08-28T11:06:59.724Z,100283.88
2022-08-28T11:09:49.852Z,100274.88
2022-08-28T11:12:43.690Z,100249.28
2022-08-28T11:15:52.064Z,100271.50
2022-08-28T11:19:00.315Z,100275.00
2022-08-28T11:21:55.236Z,100283.66
2022-08-28T11:24:48.753Z,100257.63
2022-08-28T11:27:39.211Z,100271.44
2022-08-28T11:30:32.829Z,100272.44
2022-08-28T11:33:40.297Z,100270.34
2022-08-28T11:36:58.203Z,100267.03
2022-08-28T11:39:48.063Z,100262.22
2022-08-28T11:42:37.972Z,100246.19
2022-08-28T11:46:06.343Z,100266.66
2022-08-28T11:48:56.571Z,100267.81
2022-08-28T11:52:02.259Z,100246.25
2022-08-28T11:54:57.765Z,100251.47
2022-08-28T12:00:52.890Z,100274.84
2022-08-28T12:03:44.618Z,100271.69
2022-08-28T12:07:15.907Z,100267.00
2022-08-28T12:10:46.349Z,100262.50
2022-08-28T12:13:54.919Z,100256.91
2022-08-28T12:17:17.973Z,100265.06
2022-08-28T12:20:10.273Z,100259.75
2022-08-28T12:23:02.933Z,100261.78
2022-08-28T12:25:59.033Z,100251.53
2022-08-28T12:28:51.711Z,100249.56
2022-08-28T12:32:12.479Z,100252.41
2022-08-28T12:35:22.117Z,100255.69
2022-08-28T12:38:19.288Z,100253.56
2022-08-28T12:41:16.900Z,100248.13
2022-08-28T12:44:10.600Z,100251.81
2022-08-28T12:46:59.496Z,100245.75
2022-08-28T12:49:48.033Z,100241.84
2022-08-28T12:52:36.967Z,100245.75
2022-08-28T12:55:26.005Z,100246.44
2022-08-28T12:58:14.777Z,100240.81
2022-08-28T13:01:09.047Z,100236.56
2022-08-28T13:04:00.365Z,100117.06
2022-08-28T13:06:48.960Z,100226.53
2022-08-28T13:09:37.937Z,100228.56
2022-08-28T13:12:37.766Z,100209.78
2022-08-28T13:15:53.402Z,100220.09
2022-08-28T13:18:52.100Z,100189.69
2022-08-28T13:21:58.453Z,100220.47
2022-08-28T13:24:48.447Z,100219.63
2022-08-28T13:27:38.538Z,100214.31
2022-08-28T13:30:31.674Z,100209.97
2022-08-28T13:33:22.518Z,100208.66
2022-08-28T13:36:24.702Z,100210.66
2022-08-28T13:39:14.264Z,100208.38
2022-08-28T13:42:08.263Z,100195.81
2022-08-28T13:44:56.834Z,100206.34
2022-08-28T13:47:45.352Z,100199.84
2022-08-28T13:50:34.111Z,100204.66
2022-08-28T13:53:24.122Z,100206.50
2022-08-28T13:56:12.877Z,100197.75
2022-08-28T13:59:01.446Z,100194.69
2022-08-28T14:02:09.070Z,100186.19
2022-08-28T14:04:57.739Z,100197.06
2022-08-28T14:07:46.430Z,100186.13
2022-08-28T14:10:36.458Z,100187.94
2022-08-28T14:13:27.556Z,100187.72
2022-08-28T14:16:16.837Z,100186.03
2022-08-28T14:19:06.479Z,100177.78
2022-08-28T14:21:55.273Z,100144.47
2022-08-28T14:24:44.901Z,100173.06
2022-08-28T14:27:34.835Z,100175.78
2022-08-28T14:30:23.995Z,100175.59
2022-08-28T14:33:14.964Z,100164.78
2022-08-28T14:36:04.113Z,100165.31
2022-08-28T14:38:54.531Z,100167.78
2022-08-28T14:41:44.196Z,100166.06
2022-08-28T14:44:34.167Z,100172.97
2022-08-28T14:47:22.851Z,100171.38
2022-08-28T14:50:12.015Z,100156.59
2022-08-28T14:53:00.605Z,100150.00
2022-08-28T14:55:50.801Z,100160.66
2022-08-28T14:58:39.506Z,100165.84
2022-08-28T15:01:40.220Z,100162.53
2022-08-28T15:04:34.413Z,100156.34
2022-08-28T15:07:23.264Z,100156.16
2022-08-28T15:10:12.729Z,100155.34
2022-08-28T15:13:01.344Z,100153.22
2022-08-28T15:15:50.257Z,100152.34
2022-08-28T15:18:40.292Z,100149.41
2022-08-28T15:21:32.155Z,100154.41
2022-08-28T15:24:22.666Z,100148.75
2022-08-28T15:27:11.664Z,100146.84
2022-08-28T15:30:00.317Z,100151.22
2022-08-28T15:32:49.776Z,100159.91
2022-08-28T15:35:39.871Z,100151.34
2022-08-28T15:38:28.426Z,100155.97
2022-08-28T15:41:24.871Z,100144.66
2022-08-28T15:44:15.121Z,100146.38
2022-08-28T15:47:04.871Z,100147.31
2022-08-28T15:49:56.011Z,100144.00
2022-08-28T15:52:47.157Z,100148.72
2022-08-28T15:55:36.748Z,100153.22
2022-08-28T15:58:25.622Z,100142.03
2022-08-28T16:01:14.554Z,100135.16
2022-08-28T16:04:03.458Z,100140.88
2022-08-28T16:06:56.610Z,100141.50
2022-08-28T16:09:50.936Z,100137.31
2022-08-28T16:12:40.102Z,100141.56
2022-08-28T16:15:29.339Z,100050.53
2022-08-28T16:18:18.312Z,100143.66
2022-08-28T16:21:07.400Z,100135.28
2022-08-28T16:23:56.080Z,100139.44
2022-08-28T16:26:46.368Z,100036.47
2022-08-28T16:29:35.928Z,100095.81
2022-08-28T16:32:25.791Z,100131.81
2022-08-28T16:35:14.864Z,100131.34
2022-08-28T16:38:03.469Z,100134.69
2022-08-28T16:40:52.080Z,100137.75
2022-08-28T16:43:42.164Z,100128.72
2022-08-28T16:46:31.894Z,100135.94
2022-08-28T16:49:20.559Z,100131.66
2022-08-28T16:52:09.129Z,100135.94
2022-08-28T16:54:58.489Z,100136.13
2022-08-28T16:57:47.082Z,100134.69
2022-08-28T17:00:37.132Z,100134.91
2022-08-28T17:03:41.759Z,100138.56
2022-08-28T17:06:32.189Z,100125.75
2022-08-28T17:09:20.950Z,100129.97
2022-08-28T17:12:09.850Z,100135.94
2022-08-28T17:15:00.549Z,100125.72
2022-08-28T17:17:51.327Z,100120.09
2022-08-28T17:20:57.070Z,100129.25
2022-08-28T17:23:46.465Z,100128.34
2022-08-28T17:26:35.060Z,100130.59
2022-08-28T17:29:23.844Z,100128.94
2022-08-28T17:32:14.530Z,100141.13
2022-08-28T17:35:05.454Z,100137.53
2022-08-28T17:37:55.597Z,100134.91
2022-08-28T17:40:44.313Z,100130.63
2022-08-28T17:43:33.070Z,100132.66
2022-08-28T17:46:21.738Z,100128.13
2022-08-28T17:49:10.431Z,100139.72
2022-08-28T17:52:00.518Z,100140.91
2022-08-28T17:54:49.007Z,100112.75
2022-08-28T17:57:37.590Z,100142.16
2022-08-28T18:00:26.642Z,100146.91
2022-08-28T18:03:15.297Z,100139.63
2022-08-28T18:06:04.749Z,100153.94
2022-08-28T18:08:55.778Z,100147.00
2022-08-28T18:11:44.398Z,100155.22
2022-08-28T18:14:34.085Z,100161.09
2022-08-28T18:17:23.218Z,100156.66
2022-08-28T18:20:12.436Z,100169.38
2022-08-28T18:23:01.066Z,100168.66
2022-08-28T18:25:52.840Z,100167.75
2022-08-28T18:28:41.470Z,100159.34
2022-08-28T18:31:31.093Z,100166.34
2022-08-28T18:34:19.834Z,100177.09
2022-08-28T18:37:08.636Z,100179.41
2022-08-28T18:39:57.245Z,100175.63
2022-08-28T18:42:48.049Z,100161.00
2022-08-28T18:45:36.771Z,100189.72
2022-08-28T18:48:25.425Z,100184.84
2022-08-28T18:51:14.710Z,100186.34
2022-08-28T18:54:10.290Z,100201.13
2022-08-28T18:57:04.425Z,100202.88
2022-08-28T18:59:55.743Z,100179.72
2022-08-28T19:02:44.752Z,100208.41
2022-08-28T19:05:34.532Z,100214.44
2022-08-28T19:08:23.044Z,100212.81
2022-08-28T19:11:12.973Z,100215.31
2022-08-28T19:14:03.967Z,100214.56
2022-08-28T19:16:55.560Z,100215.94
2022-08-28T19:19:44.091Z,100218.13
2022-08-28T19:22:32.817Z,100217.03
2022-08-28T19:25:28.277Z,100224.66
2022-08-28T19:28:17.357Z,100231.22
2022-08-28T19:31:08.994Z,100222.22
2022-08-28T19:33:58.993Z,100233.16
2022-08-28T19:36:47.611Z,100239.41
2022-08-28T19:39:36.166Z,100241.81
2022-08-28T19:42:25.057Z,100247.81
2022-08-28T19:45:15.323Z,100237.97
2022-08-28T19:48:04.331Z,100236.06
2022-08-28T19:51:04.456Z,100248.34
2022-08-28T19:53:58.008Z,100193.91
2022-08-28T19:56:47.460Z,100224.47
2022-08-28T19:59:36.416Z,100207.47
2022-08-28T20:02:25.006Z,100259.66
2022-08-28T20:05:13.678Z,100245.72
2022-08-28T20:08:03.924Z,100257.94
2022-08-28T20:10:53.060Z,100265.59
2022-08-28T20:13:41.623Z,100264.47
2022-08-28T20:16:30.280Z,100265.25
2022-08-28T20:19:19.859Z,100258.41
2022-08-28T20:22:08.451Z,100261.09
2022-08-28T20:24:58.342Z,100261.91
2022-08-28T20:27:46.956Z,100266.19
2022-08-28T20:30:35.542Z,100231.44
2022-08-28T20:33:24.198Z,100277.78
2022-08-28T20:36:16.202Z,100273.13
2022-08-28T20:39:10.315Z,100267.63
2022-08-28T20:42:00.259Z,100266.81
2022-08-28T20:44:48.766Z,100269.66
2022-08-28T20:47:37.465Z,100264.69
2022-08-28T20:50:26.624Z,100274.53
2022-08-28T20:53:15.208Z,100269.06
2022-08-28T20:56:23.762Z,100272.84
2022-08-28T20:59:14.017Z,100266.81
2022-08-28T21:02:05.240Z,100271.16
2022-08-28T21:04:54.466Z,100203.00
2022-08-28T21:07:42.983Z,100269.19
2022-08-28T21:10:31.520Z,100275.66
2022-08-28T21:13:20.067Z,100282.44
2022-08-28T21:16:10.048Z,100285.16
2022-08-28T21:19:15.289Z,100282.13
2022-08-28T21:22:05.627Z,100282.72
2022-08-28T21:24:54.644Z,100295.16
2022-08-28T21:27:43.276Z,100303.28
2022-08-28T21:30:31.955Z,100302.78
2022-08-28T21:33:22.113Z,100301.41
2022-08-28T21:36:11.511Z,100297.78
2022-08-28T21:39:00.028Z,100297.59
2022-08-28T21:41:48.819Z,100141.03
2022-08-28T21:44:38.762Z,100296.44
2022-08-28T21:47:27.535Z,100298.38
2022-08-28T21:50:17.551Z,100290.59
2022-08-28T21:53:06.180Z,100300.66
2022-08-28T21:55:55.622Z,100303.25
2022-08-28T21:58:44.671Z,100305.25
2022-08-28T22:01:33.375Z,100308.88
2022-08-28T22:04:22.241Z,100302.34
2022-08-28T22:07:13.987Z,100299.34
2022-08-28T22:10:02.585Z,100298.88
2022-08-28T22:12:51.408Z,100308.19
2022-08-28T22:15:40.568Z,100277.47
2022-08-28T22:18:32.066Z,100308.03
2022-08-28T22:21:43.151Z,100308.53
2022-08-28T22:24:33.056Z,100305.25
2022-08-28T22:27:21.648Z,100317.22
2022-08-28T22:30:11.149Z,100303.88
2022-08-28T22:32:59.649Z,100313.53
2022-08-28T22:35:49.784Z,100307.03
2022-08-28T22:38:39.254Z,100306.19
2022-08-28T22:41:29.408Z,100308.78
2022-08-28T22:44:17.913Z,100311.81
2022-08-28T22:47:07.244Z,100298.13
2022-08-28T22:49:56.298Z,100311.81
2022-08-28T22:52:47.103Z,100304.59
2022-08-28T22:55:40.016Z,100309.22
2022-08-28T22:58:33.624Z,100285.03
2022-08-28T23:01:24.477Z,100324.34
2022-08-28T23:04:13.270Z,100327.78
2022-08-28T23:07:01.787Z,100319.91
2022-08-28T23:09:50.327Z,100318.13
2022-08-28T23:12:39.543Z,100320.59
2022-08-28T23:15:29.511Z,100315.06
2022-08-28T23:18:18.458Z,100310.47
2022-08-28T23:21:08.219Z,100308.56
2022-08-28T23:23:58.608Z,100313.50
2022-08-28T23:26:47.835Z,100309.38
2022-08-28T23:29:36.368Z,100315.66
2022-08-28T23:32:26.260Z,100321.66
2022-08-28T23:35:15.958Z,100312.22
2022-08-28T23:38:05.213Z,100318.69
2022-08-28T23:40:54.368Z,100317.66
2022-08-28T23:43:42.888Z,100311.53
2022-08-28T23:46:31.662Z,100190.50
2022-08-28T23:49:26.252Z,100309.09
2022-08-28T23:52:15.409Z,100317.78
2022-08-28T23:55:05.003Z,100317.22
2022-08-28T23:57:54.275Z,100312.53
